createdAt,value
2022-07-26T00:00:17.842Z,100007.69
2022-07-26T00:02:47.619Z,100004.34
2022-07-26T00:05:16.533Z,100003.31
2022-07-26T00:07:44.259Z,100005.69
2022-07-26T00:10:12.014Z,100002.16
2022-07-26T00:12:39.892Z,100002.31
2022-07-26T00:15:08.728Z,100004.34
2022-07-26T00:17:36.548Z,100001.97
2022-07-26T00:20:06.904Z,99999.41
2022-07-26T00:22:39.724Z,100002.28
2022-07-26T00:25:08.650Z,99999.75
2022-07-26T00:27:37.588Z,99997.41
2022-07-26T00:30:06.612Z,99998.41
2022-07-26T00:32:34.347Z,99998.75
2022-07-26T00:35:02.067Z,100003.31
2022-07-26T00:37:31.129Z,99998.06
2022-07-26T00:39:58.819Z,100000.78
2022-07-26T00:42:26.552Z,100000.94
2022-07-26T00:44:54.260Z,100002.66
2022-07-26T00:47:21.998Z,99972.41
2022-07-26T00:49:49.697Z,100002.31
2022-07-26T00:52:17.588Z,99948.91
2022-07-26T00:54:46.705Z,99976.63
2022-07-26T00:57:14.971Z,100011.41
2022-07-26T00:59:42.752Z,100012.63
2022-07-26T01:02:10.723Z,99982.53
2022-07-26T01:04:38.517Z,100012.09
2022-07-26T01:07:15.050Z,100007.53
2022-07-26T01:09:43.376Z,100002.81
2022-07-26T01:12:12.801Z,100019.56
2022-07-26T01:14:43.345Z,100017.84
2022-07-26T01:17:11.104Z,100016.16
2022-07-26T01:19:38.815Z,100021.56
2022-07-26T01:22:12.435Z,100016.34
2022-07-26T01:24:41.962Z,100022.59
2022-07-26T01:27:09.708Z,100026.47
2022-07-26T01:29:37.525Z,100029.34
2022-07-26T01:32:05.599Z,100029.34
2022-07-26T01:34:33.292Z,100029.66
2022-07-26T01:37:01.058Z,100035.06
2022-07-26T01:39:30.100Z,100029.66
2022-07-26T01:41:57.837Z,100028.84
2022-07-26T01:44:25.605Z,99994.50
2022-07-26T01:46:53.362Z,100029.00
2022-07-26T01:49:21.120Z,100029.19
2022-07-26T01:51:48.905Z,100028.31
2022-07-26T01:54:22.339Z,100032.88
2022-07-26T01:56:53.643Z,100039.31
2022-07-26T01:59:21.339Z,100027.78
2022-07-26T02:01:49.142Z,100028.47
2022-07-26T02:04:30.844Z,100031.00
2022-07-26T02:06:58.901Z,99984.34
2022-07-26T02:09:26.598Z,100028.31
2022-07-26T02:11:58.446Z,100045.53
2022-07-26T02:14:28.023Z,100028.63
2022-07-26T02:16:59.909Z,100024.41
2022-07-26T02:19:28.095Z,100028.97
2022-07-26T02:21:55.849Z,100036.25
2022-07-26T02:24:23.592Z,99987.50
2022-07-26T02:26:51.317Z,100034.53
2022-07-26T02:29:20.360Z,100035.41
2022-07-26T02:31:48.257Z,100036.41
2022-07-26T02:34:16.987Z,100038.44
2022-07-26T02:36:44.870Z,99981.44
2022-07-26T02:39:12.673Z,99963.19
2022-07-26T02:41:40.486Z,100045.97
2022-07-26T02:44:09.014Z,100049.72
2022-07-26T02:46:38.558Z,100050.72
2022-07-26T02:49:06.414Z,100053.75
2022-07-26T02:51:34.453Z,100053.75
2022-07-26T02:54:02.178Z,100052.91
2022-07-26T02:56:29.913Z,100052.03
2022-07-26T02:58:57.629Z,100056.47
2022-07-26T03:01:25.383Z,100061.16
2022-07-26T03:03:54.489Z,100063.88
2022-07-26T03:06:22.204Z,100053.22
2022-07-26T03:08:50.137Z,100056.25
2022-07-26T03:11:17.933Z,100066.06
2022-07-26T03:13:45.648Z,100062.69
2022-07-26T03:16:13.442Z,100069.78
2022-07-26T03:18:41.194Z,100068.09
2022-07-26T03:21:10.432Z,100077.19
2022-07-26T03:23:38.130Z,100075.84
2022-07-26T03:26:05.969Z,100068.41
2022-07-26T03:28:34.373Z,100053.31
2022-07-26T03:31:02.220Z,100024.41
2022-07-26T03:33:30.227Z,100010.03
2022-07-26T03:35:57.987Z,100071.63
2022-07-26T03:38:27.097Z,100077.19
2022-07-26T03:40:54.834Z,100073.63
2022-07-26T03:43:23.395Z,100068.53
2022-07-26T03:45:51.348Z,100065.63
2022-07-26T03:48:22.400Z,100081.03
2022-07-26T03:50:50.114Z,100081.03
2022-07-26T03:53:17.841Z,100085.59
2022-07-26T03:56:04.451Z,100087.63
2022-07-26T03:58:32.203Z,100090.31
2022-07-26T04:01:00.006Z,100088.63
2022-07-26T04:03:27.820Z,100091.50
2022-07-26T04:05:56.061Z,100093.34
2022-07-26T04:08:23.881Z,100096.22
2022-07-26T04:10:52.945Z,100099.06
2022-07-26T04:13:20.777Z,100035.44
2022-07-26T04:15:48.607Z,100057.59
2022-07-26T04:18:16.354Z,100097.38
2022-07-26T04:20:44.220Z,100089.44
2022-07-26T04:23:12.466Z,100091.47
2022-07-26T04:25:41.362Z,100086.06
2022-07-26T04:28:10.739Z,100083.50
2022-07-26T04:30:38.523Z,100092.63
2022-07-26T04:33:06.314Z,100085.53
2022-07-26T04:35:34.068Z,100094.66
2022-07-26T04:38:02.034Z,100091.09
2022-07-26T04:40:33.413Z,100091.25
2022-07-26T04:43:01.267Z,100093.94
2022-07-26T04:45:30.382Z,100100.38
2022-07-26T04:47:58.161Z,100088.72
2022-07-26T04:50:25.985Z,100001.50
2022-07-26T04:52:53.717Z,100103.22
2022-07-26T04:55:21.519Z,100114.56
2022-07-26T04:57:49.552Z,100101.53
2022-07-26T05:00:23.000Z,100113.50
2022-07-26T05:02:54.594Z,100068.84
2022-07-26T05:05:22.924Z,100095.63
2022-07-26T05:07:52.527Z,100103.56
2022-07-26T05:10:21.621Z,100047.13
2022-07-26T05:12:49.570Z,100117.22
2022-07-26T05:15:17.265Z,100110.13
2022-07-26T05:17:45.039Z,100052.53
2022-07-26T05:20:15.889Z,100095.94
2022-07-26T05:22:43.714Z,100107.59
2022-07-26T05:25:11.418Z,100063.00
2022-07-26T05:27:40.659Z,100099.16
2022-07-26T05:30:09.879Z,100109.81
2022-07-26T05:32:37.727Z,100100.16
2022-07-26T05:35:06.306Z,100102.19
2022-07-26T05:37:35.536Z,100104.69
2022-07-26T05:40:03.284Z,100097.66
2022-07-26T05:42:31.028Z,100095.84
2022-07-26T05:44:58.747Z,100106.25
2022-07-26T05:47:26.511Z,100103.03
2022-07-26T05:49:55.207Z,100100.81
2022-07-26T05:52:23.346Z,100101.75
2022-07-26T05:54:52.382Z,100102.22
2022-07-26T05:57:20.116Z,100108.91
2022-07-26T05:59:47.840Z,100107.22
2022-07-26T06:02:15.687Z,100114.63
2022-07-26T06:04:43.555Z,100116.75
2022-07-26T06:07:15.063Z,100110.28
2022-07-26T06:09:42.779Z,100118.53
2022-07-26T06:12:11.921Z,100080.81
2022-07-26T06:14:39.625Z,100113.06
2022-07-26T06:17:07.488Z,100114.44
2022-07-26T06:19:35.701Z,100110.44
2022-07-26T06:22:03.406Z,100113.38
2022-07-26T06:24:31.125Z,100120.00
2022-07-26T06:27:04.684Z,100121.47
2022-07-26T06:29:34.531Z,100129.84
2022-07-26T06:32:02.337Z,100132.50
2022-07-26T06:34:30.146Z,100127.00
2022-07-26T06:36:57.851Z,100131.69
2022-07-26T06:39:25.583Z,100133.72
2022-07-26T06:41:53.284Z,100135.22
2022-07-26T06:44:21.003Z,100138.50
2022-07-26T06:46:50.046Z,100135.56
2022-07-26T06:49:22.228Z,100135.44
2022-07-26T06:51:50.504Z,100141.75
2022-07-26T06:54:18.231Z,100148.72
2022-07-26T06:56:45.930Z,100142.53
2022-07-26T06:59:13.715Z,100140.38
2022-07-26T07:01:57.617Z,100147.16
2022-07-26T07:04:29.764Z,100144.84
2022-07-26T07:07:02.339Z,100140.81
2022-07-26T07:09:33.356Z,100145.72
2022-07-26T07:12:08.297Z,100150.50
2022-07-26T07:14:38.391Z,100154.59
2022-07-26T07:17:10.436Z,100141.59
2022-07-26T07:19:42.199Z,100144.81
2022-07-26T07:22:12.332Z,100142.97
2022-07-26T07:24:40.494Z,100137.09
2022-07-26T07:27:08.247Z,100092.59
2022-07-26T07:29:35.988Z,100140.13
2022-07-26T07:32:03.873Z,100139.97
2022-07-26T07:34:31.675Z,100153.31
2022-07-26T07:37:01.576Z,100151.31
2022-07-26T07:39:34.927Z,100147.59
2022-07-26T07:42:06.573Z,100146.59
2022-07-26T07:44:34.314Z,100152.66
2022-07-26T07:47:02.126Z,100110.19
2022-07-26T07:49:30.045Z,100159.63
2022-07-26T07:51:57.785Z,100160.59
2022-07-26T07:54:26.868Z,100156.91
2022-07-26T07:56:56.318Z,100158.59
2022-07-26T07:59:24.071Z,100154.88
2022-07-26T08:01:51.848Z,100131.22
2022-07-26T08:04:19.857Z,100154.22
2022-07-26T08:06:50.454Z,100152.25
2022-07-26T08:09:19.287Z,100140.22
2022-07-26T08:11:50.759Z,100137.69
2022-07-26T08:14:19.042Z,100149.91
2022-07-26T08:16:47.200Z,100160.88
2022-07-26T08:19:15.441Z,100160.88
2022-07-26T08:21:46.055Z,100160.03
2022-07-26T08:24:14.666Z,100160.56
2022-07-26T08:26:42.373Z,100163.09
2022-07-26T08:29:11.966Z,100151.81
2022-07-26T08:31:40.028Z,100156.19
2022-07-26T08:34:07.806Z,100158.41
2022-07-26T08:36:35.506Z,100166.50
2022-07-26T08:39:03.246Z,100167.69
2022-07-26T08:41:31.510Z,100176.78
2022-07-26T08:44:06.061Z,100182.03
2022-07-26T08:46:35.965Z,100174.56
2022-07-26T08:49:03.615Z,100176.44
2022-07-26T08:51:31.404Z,100189.09
2022-07-26T08:54:05.451Z,100184.41
2022-07-26T08:56:34.918Z,100185.22
2022-07-26T08:59:05.498Z,100189.81
2022-07-26T09:01:34.935Z,100195.22
2022-07-26T09:04:30.937Z,100198.06
2022-07-26T09:07:01.146Z,100191.97
2022-07-26T09:09:28.971Z,100192.81
2022-07-26T09:11:56.947Z,100200.78
2022-07-26T09:14:24.809Z,100196.19
2022-07-26T09:17:00.402Z,100186.25
2022-07-26T09:19:28.327Z,100146.28
2022-07-26T09:21:57.862Z,100127.66
2022-07-26T09:24:32.524Z,100183.22
2022-07-26T09:27:00.817Z,100141.31
2022-07-26T09:29:29.536Z,100193.50
2022-07-26T09:32:12.210Z,100169.97
2022-07-26T09:34:52.031Z,100196.03
2022-07-26T09:37:20.605Z,100171.88
2022-07-26T09:39:55.040Z,100203.31
2022-07-26T09:42:29.315Z,100145.38
2022-07-26T09:44:57.969Z,100218.88
2022-07-26T09:47:36.233Z,100222.56
2022-07-26T09:50:14.370Z,100213.63
2022-07-26T09:52:42.238Z,100221.22
2022-07-26T09:55:13.182Z,100233.03
2022-07-26T09:57:40.906Z,100252.94
2022-07-26T10:00:09.875Z,100261.69
2022-07-26T10:02:38.955Z,100260.19
2022-07-26T10:05:07.646Z,100268.44
2022-07-26T10:07:35.388Z,100266.72
2022-07-26T10:10:04.996Z,100271.59
2022-07-26T10:12:33.509Z,100254.59
2022-07-26T10:15:01.264Z,100289.16
2022-07-26T10:17:49.486Z,100289.97
2022-07-26T10:20:45.493Z,100288.75
2022-07-26T10:23:38.547Z,100292.31
2022-07-26T10:26:07.136Z,100203.47
2022-07-26T10:28:38.032Z,100291.94
2022-07-26T10:31:38.992Z,100289.25
2022-07-26T10:34:08.263Z,100299.34
2022-07-26T10:36:36.989Z,100311.16
2022-07-26T10:39:10.051Z,100307.78
2022-07-26T10:41:39.500Z,100308.63
2022-07-26T10:44:21.494Z,100286.44
2022-07-26T10:46:56.494Z,100308.63
2022-07-26T10:49:30.274Z,100305.06
2022-07-26T10:52:16.820Z,100309.50
2022-07-26T10:55:11.017Z,100317.91
2022-07-26T10:57:39.993Z,100319.91
2022-07-26T11:00:26.885Z,100316.50
2022-07-26T11:02:58.714Z,100317.53
2022-07-26T11:05:31.171Z,100325.63
2022-07-26T11:08:08.140Z,100298.50
2022-07-26T11:10:36.917Z,100333.19
2022-07-26T11:13:10.572Z,100329.81
2022-07-26T11:15:39.217Z,100284.78
2022-07-26T11:18:11.381Z,100343.47
2022-07-26T11:20:40.574Z,100344.47
2022-07-26T11:23:21.380Z,100341.09
2022-07-26T11:26:02.429Z,100345.78
2022-07-26T11:28:30.273Z,100341.41
2022-07-26T11:30:58.481Z,100351.19
2022-07-26T11:33:38.510Z,100349.50
2022-07-26T11:36:07.683Z,100354.50
2022-07-26T11:38:48.551Z,100346.88
2022-07-26T11:41:16.552Z,100366.16
2022-07-26T11:43:44.264Z,100366.00
2022-07-26T11:46:12.019Z,100372.41
2022-07-26T11:48:40.230Z,100370.41
2022-07-26T11:51:13.189Z,100369.53
2022-07-26T11:53:40.945Z,100377.63
2022-07-26T11:56:27.063Z,100375.81
2022-07-26T11:58:56.507Z,100392.16
2022-07-26T12:01:25.354Z,100381.19
2022-07-26T12:03:54.066Z,100385.91
2022-07-26T12:08:46.161Z,100389.91
2022-07-26T12:11:15.516Z,100394.63
2022-07-26T12:13:55.519Z,100389.06
2022-07-26T12:16:37.895Z,100392.78
2022-07-26T12:19:05.636Z,100393.63
2022-07-26T12:21:43.871Z,100390.78
2022-07-26T12:24:14.174Z,100390.94
2022-07-26T12:26:42.122Z,100374.34
2022-07-26T12:29:33.059Z,100381.66
2022-07-26T12:32:10.287Z,100330.16
2022-07-26T12:34:40.260Z,100366.69
2022-07-26T12:37:17.818Z,100342.44
2022-07-26T12:40:02.969Z,100372.56
2022-07-26T12:42:33.480Z,100369.94
2022-07-26T12:45:02.825Z,100387.16
2022-07-26T12:47:30.634Z,100374.78
2022-07-26T12:49:58.376Z,100381.59
2022-07-26T12:52:26.093Z,100380.72
2022-07-26T12:54:54.177Z,100371.03
2022-07-26T12:57:23.291Z,100345.25
2022-07-26T12:59:51.049Z,100387.63
2022-07-26T13:02:18.945Z,100380.19
2022-07-26T13:04:46.892Z,100384.59
2022-07-26T13:07:14.798Z,100356.06
2022-07-26T13:09:42.580Z,100391.16
2022-07-26T13:12:10.899Z,100388.75
2022-07-26T13:14:40.212Z,100392.63
2022-07-26T13:17:08.515Z,100389.47
2022-07-26T13:19:36.406Z,100400.00
2022-07-26T13:22:04.963Z,100390.41
2022-07-26T13:24:33.521Z,100389.75
2022-07-26T13:27:01.298Z,100401.50
2022-07-26T13:29:29.848Z,100411.63
2022-07-26T13:32:00.257Z,100398.75
2022-07-26T13:34:33.009Z,100358.47
2022-07-26T13:37:02.593Z,100404.00
2022-07-26T13:39:36.260Z,100404.75
2022-07-26T13:42:04.008Z,100405.59
2022-07-26T13:44:31.736Z,100403.34
2022-07-26T13:47:02.192Z,100400.78
2022-07-26T13:49:30.998Z,100403.66
2022-07-26T13:51:58.815Z,100401.50
2022-07-26T13:54:27.635Z,100401.50
2022-07-26T13:56:55.853Z,100404.19
2022-07-26T13:59:23.606Z,100403.03
2022-07-26T14:01:51.448Z,100358.22
2022-07-26T14:04:20.627Z,100401.06
2022-07-26T14:06:48.517Z,100394.72
2022-07-26T14:09:16.384Z,100416.22
2022-07-26T14:11:44.203Z,100421.63
2022-07-26T14:14:12.419Z,100422.63
2022-07-26T14:16:40.772Z,100381.50
2022-07-26T14:19:08.604Z,100416.00
2022-07-26T14:21:46.954Z,100417.13
2022-07-26T14:24:18.986Z,100395.38
2022-07-26T14:26:48.816Z,100421.25
2022-07-26T14:29:16.640Z,100426.50
2022-07-26T14:31:45.551Z,100412.75
2022-07-26T14:34:14.459Z,100423.09
2022-07-26T14:36:43.870Z,100426.66
2022-07-26T14:39:11.678Z,100425.22
2022-07-26T14:41:39.554Z,100431.19
2022-07-26T14:44:07.559Z,100436.59
2022-07-26T14:46:35.552Z,100440.00
2022-07-26T14:49:03.367Z,100447.22
2022-07-26T14:51:31.250Z,100439.50
2022-07-26T14:54:00.344Z,100448.25
2022-07-26T14:56:28.093Z,100460.03
2022-07-26T14:58:55.819Z,100467.81
2022-07-26T15:01:23.851Z,100469.53
2022-07-26T15:03:51.733Z,100479.16
2022-07-26T15:06:19.514Z,100474.06
2022-07-26T15:08:47.272Z,100483.19
2022-07-26T15:11:16.928Z,100480.63
2022-07-26T15:13:44.690Z,100482.91
2022-07-26T15:16:13.855Z,100483.94
2022-07-26T15:18:41.669Z,100480.50
2022-07-26T15:21:09.492Z,100482.34
2022-07-26T15:23:39.278Z,100488.91
2022-07-26T15:26:07.040Z,100476.44
2022-07-26T15:28:36.131Z,100488.09
2022-07-26T15:31:03.888Z,100490.06
2022-07-26T15:33:32.488Z,100494.59
2022-07-26T15:36:03.979Z,100496.63
2022-07-26T15:38:33.575Z,100495.75
2022-07-26T15:41:01.317Z,100495.75
2022-07-26T15:43:48.910Z,100469.03
2022-07-26T15:46:19.669Z,100388.09
2022-07-26T15:48:49.543Z,100496.06
2022-07-26T15:51:17.494Z,100490.50
2022-07-26T15:53:46.695Z,100454.13
2022-07-26T15:56:14.725Z,100490.97
2022-07-26T15:58:42.475Z,100485.56
2022-07-26T16:01:12.829Z,100470.69
2022-07-26T16:03:41.974Z,100469.38
2022-07-26T16:06:09.695Z,100465.13
2022-07-26T16:08:52.727Z,100456.03
2022-07-26T16:11:25.468Z,100440.56
2022-07-26T16:13:53.184Z,100435.84
2022-07-26T16:16:30.230Z,100416.88
2022-07-26T16:18:59.563Z,100388.84
2022-07-26T16:21:27.301Z,100450.31
2022-07-26T16:23:55.036Z,100454.69
2022-07-26T16:26:23.508Z,100454.69
2022-07-26T16:28:51.249Z,100452.84
2022-07-26T16:31:19.076Z,100454.84
2022-07-26T16:33:46.987Z,100449.44
2022-07-26T16:36:17.070Z,100456.69
2022-07-26T16:38:44.828Z,100454.84
2022-07-26T16:41:12.833Z,100449.28
2022-07-26T16:43:40.625Z,100457.25
2022-07-26T16:46:08.361Z,100449.97
2022-07-26T16:48:36.125Z,100455.38
2022-07-26T16:51:04.012Z,100447.47
2022-07-26T16:53:33.204Z,100437.88
2022-07-26T16:56:00.952Z,100454.53
2022-07-26T16:58:28.696Z,100456.53
2022-07-26T17:00:56.597Z,100457.25
2022-07-26T17:03:24.689Z,100453.38
2022-07-26T17:05:52.571Z,100454.41
2022-07-26T17:08:20.324Z,100461.47
2022-07-26T17:10:49.392Z,100394.09
2022-07-26T17:13:17.151Z,100452.84
2022-07-26T17:15:44.952Z,100455.06
2022-07-26T17:18:13.190Z,100419.03
2022-07-26T17:20:41.098Z,100459.78
2022-07-26T17:23:09.095Z,100449.75
2022-07-26T17:25:36.839Z,100459.78
2022-07-26T17:28:06.571Z,100455.38
2022-07-26T17:30:34.343Z,100447.13
2022-07-26T17:33:02.141Z,100449.16
2022-07-26T17:35:29.933Z,100448.13
2022-07-26T17:37:57.697Z,100453.16
2022-07-26T17:40:25.671Z,100448.28
2022-07-26T17:42:53.841Z,100454.53
2022-07-26T17:45:23.048Z,100462.63
2022-07-26T17:47:50.802Z,100453.69
2022-07-26T17:53:06.291Z,100456.22
2022-07-26T17:55:34.367Z,100454.84
2022-07-26T17:58:02.120Z,100461.09
2022-07-26T18:00:31.210Z,100452.28
2022-07-26T18:02:58.977Z,100454.84
2022-07-26T18:05:34.024Z,100463.81
2022-07-26T18:08:03.811Z,100420.31
2022-07-26T18:10:31.545Z,100465.34
2022-07-26T18:12:59.331Z,100457.38
2022-07-26T18:15:27.063Z,100469.03
2022-07-26T18:17:56.213Z,100465.34
2022-07-26T18:20:24.091Z,100472.72
2022-07-26T18:22:53.705Z,100460.53
2022-07-26T18:25:21.646Z,100458.13
2022-07-26T18:27:49.837Z,100463.84
2022-07-26T18:30:17.560Z,100464.84
2022-07-26T18:32:45.394Z,100463.13
2022-07-26T18:35:14.512Z,100441.03
2022-07-26T18:37:42.264Z,100468.81
2022-07-26T18:40:10.381Z,100482.31
2022-07-26T18:42:38.133Z,100462.91
2022-07-26T18:45:06.941Z,100471.97
2022-07-26T18:47:34.670Z,100474.13
2022-07-26T18:50:02.422Z,100482.22
2022-07-26T18:52:32.789Z,100481.34
2022-07-26T18:55:02.388Z,100476.81
2022-07-26T18:57:30.213Z,100478.81
2022-07-26T18:59:57.924Z,100479.97
2022-07-26T19:02:25.709Z,100429.38
2022-07-26T19:04:53.493Z,100489.72
2022-07-26T19:07:21.255Z,100489.88
2022-07-26T19:09:52.672Z,100487.31
2022-07-26T19:12:24.211Z,100491.03
2022-07-26T19:14:51.951Z,100483.94
2022-07-26T19:17:20.700Z,100481.69
2022-07-26T19:19:48.416Z,100500.41
2022-07-26T19:22:16.158Z,100496.00
2022-07-26T19:24:43.875Z,100455.47
2022-07-26T19:27:14.974Z,100501.16
2022-07-26T19:29:42.816Z,100487.25
2022-07-26T19:32:10.561Z,100515.44
2022-07-26T19:34:38.277Z,100510.91
2022-07-26T19:37:06.015Z,100512.91
2022-07-26T19:39:33.716Z,100521.13
2022-07-26T19:42:01.512Z,100536.63
2022-07-26T19:44:30.643Z,100537.59
2022-07-26T19:46:58.373Z,100536.06
2022-07-26T19:49:26.206Z,100546.69
2022-07-26T19:51:54.001Z,100536.78
2022-07-26T19:54:22.897Z,100473.66
2022-07-26T19:56:50.629Z,100536.06
2022-07-26T19:59:23.301Z,100536.06
2022-07-26T20:01:56.572Z,100485.47
2022-07-26T20:04:26.068Z,100532.53
2022-07-26T20:06:53.816Z,100531.38
2022-07-26T20:09:21.533Z,100536.78
2022-07-26T20:11:51.807Z,100536.91
2022-07-26T20:14:19.639Z,100498.78
2022-07-26T20:16:48.339Z,100501.91
2022-07-26T20:19:19.581Z,100542.75
2022-07-26T20:21:47.381Z,100541.88
2022-07-26T20:24:15.721Z,100544.16
2022-07-26T20:26:43.449Z,100554.81
2022-07-26T20:29:12.389Z,100552.53
2022-07-26T20:31:40.259Z,100546.16
2022-07-26T20:34:07.995Z,100524.88
2022-07-26T20:36:37.052Z,100548.97
2022-07-26T20:39:05.044Z,100547.28
2022-07-26T20:41:33.945Z,100550.97
2022-07-26T20:44:01.899Z,100546.41
2022-07-26T20:46:29.684Z,100557.91
2022-07-26T20:48:57.555Z,100565.72
2022-07-26T20:51:25.424Z,100563.16
2022-07-26T20:53:54.497Z,100571.38
2022-07-26T20:56:22.211Z,100574.38
2022-07-26T20:58:49.951Z,100569.25
2022-07-26T21:01:17.697Z,100580.75
2022-07-26T21:03:45.451Z,100584.41
2022-07-26T21:06:13.198Z,100593.50
2022-07-26T21:08:41.984Z,100605.28
2022-07-26T21:11:11.048Z,100592.94
2022-07-26T21:13:38.787Z,100593.03
2022-07-26T21:16:09.711Z,100596.59
2022-07-26T21:18:38.401Z,100595.72
2022-07-26T21:21:06.153Z,100604.56
2022-07-26T21:23:33.901Z,100598.31
2022-07-26T21:26:01.660Z,100601.13
2022-07-26T21:28:30.734Z,100601.25
2022-07-26T21:30:58.447Z,100601.41
2022-07-26T21:33:26.197Z,100597.00
2022-07-26T21:35:53.926Z,100598.84
2022-07-26T21:38:21.669Z,100600.56
2022-07-26T21:40:49.500Z,100604.22
2022-07-26T21:43:17.334Z,100610.47
2022-07-26T21:45:46.398Z,100608.78
2022-07-26T21:48:14.435Z,100568.75
2022-07-26T21:50:45.531Z,100610.44
2022-07-26T21:53:13.603Z,100610.72
2022-07-26T21:55:41.331Z,100625.19
2022-07-26T21:58:09.100Z,100616.38
2022-07-26T22:00:37.166Z,100612.00
2022-07-26T22:03:06.267Z,100556.81
2022-07-26T22:05:38.104Z,100599.09
2022-07-26T22:08:09.873Z,100554.25
2022-07-26T22:10:43.945Z,100610.72
2022-07-26T22:13:12.503Z,100616.25
2022-07-26T22:15:40.210Z,100610.13
2022-07-26T22:18:09.964Z,100618.22
2022-07-26T22:20:37.922Z,100612.38
2022-07-26T22:23:07.122Z,100620.19
2022-07-26T22:25:35.244Z,100598.78
2022-07-26T22:28:03.065Z,100627.44
2022-07-26T22:30:30.818Z,100629.41
2022-07-26T22:32:58.901Z,100638.47
2022-07-26T22:35:33.501Z,100635.06
2022-07-26T22:38:04.941Z,100598.41
2022-07-26T22:40:32.926Z,100623.56
2022-07-26T22:43:00.708Z,100625.69
2022-07-26T22:45:28.831Z,100630.94
2022-07-26T22:47:56.935Z,100635.88
2022-07-26T22:50:25.116Z,100626.94
2022-07-26T22:52:54.253Z,100602.97
2022-07-26T22:55:21.993Z,100616.56
2022-07-26T22:57:49.741Z,100620.25
2022-07-26T23:00:18.256Z,100618.56
2022-07-26T23:02:46.120Z,100570.13
2022-07-26T23:05:15.803Z,100626.19
2022-07-26T23:07:44.826Z,100574.31
2022-07-26T23:10:17.358Z,100628.88
2022-07-26T23:12:45.105Z,100628.03
2022-07-26T23:15:12.997Z,100632.56
2022-07-26T23:17:40.750Z,100633.53
2022-07-26T23:20:10.131Z,100637.09
2022-07-26T23:22:38.283Z,100630.97
2022-07-26T23:25:06.919Z,100632.84
2022-07-26T23:27:36.089Z,100574.16
2022-07-26T23:30:03.851Z,100637.50
2022-07-26T23:32:31.605Z,100642.00
2022-07-26T23:34:59.315Z,100642.00
2022-07-26T23:37:27.635Z,100635.81
2022-07-26T23:39:55.350Z,100595.84
2022-07-26T23:42:23.092Z,100630.69
2022-07-26T23:44:52.157Z,100626.25
2022-07-26T23:47:19.918Z,100627.25
2022-07-26T23:49:47.632Z,100626.38
2022-07-26T23:52:15.470Z,100627.38
2022-07-26T23:54:43.197Z,100629.19
2022-07-26T23:57:10.927Z,100630.34
2022-07-26T23:59:38.656Z,100598.22
